Time;durP1;ratioP1;P1;durP2;ratioP2;P2;SDS_P1;SDS_P2;PMS_P1;PMS_P2;Temp;Humidity;BMP_temperature;BMP_pressure;BME280_temperature;BME280_humidity;BME280_pressure;Samples;Min_cycle;Max_cycle;Signal;HPM_P1;HPM_P2
2022/03/24 00:04:47;;;;;;;22.75;11.60;;;13.60;65.30;;;;;;10478910;28;20428;-65
2022/03/24 00:09:47;;;;;;;23.45;11.50;;;13.50;65.30;;;;;;10463533;28;20078;-65
2022/03/24 00:14:48;;;;;;;21.55;12.13;;;13.50;65.30;;;;;;10467740;28;20045;-64
2022/03/24 00:19:49;;;;;;;20.77;11.35;;;13.50;65.30;;;;;;10474676;28;20052;-65
2022/03/24 00:24:50;;;;;;;25.83;12.82;;;13.40;65.90;;;;;;10477924;28;20072;-65
2022/03/24 00:29:51;;;;;;;19.30;11.80;;;13.40;65.30;;;;;;10462453;28;21433;-64
2022/03/24 00:34:52;;;;;;;21.77;11.75;;;13.40;65.40;;;;;;10470159;28;20375;-65
2022/03/24 00:39:52;;;;;;;24.17;11.32;;;13.30;65.40;;;;;;10485194;28;20074;-64
2022/03/24 00:44:53;;;;;;;20.42;10.80;;;13.30;65.40;;;;;;10485974;28;20047;-65
2022/03/24 00:49:54;;;;;;;21.90;11.25;;;13.30;65.40;;;;;;10472029;28;20083;-64
2022/03/24 00:54:54;;;;;;;27.40;12.30;;;13.20;65.40;;;;;;10485449;28;20494;-63
2022/03/24 00:59:55;;;;;;;20.15;10.88;;;13.20;65.60;;;;;;10476875;28;20045;-64
2022/03/24 01:04:56;;;;;;;20.77;12.18;;;13.10;65.50;;;;;;10484999;28;20166;-65
2022/03/24 01:09:56;;;;;;;20.63;10.93;;;13.10;65.50;;;;;;10486102;28;20036;-64
2022/03/24 01:14:58;;;;;;;23.08;12.02;;;13.10;65.60;;;;;;10479340;28;20037;-65
2022/03/24 01:19:58;;;;;;;20.30;11.23;;;13.00;65.60;;;;;;10475217;28;20025;-64
2022/03/24 01:24:59;;;;;;;23.17;11.50;;;13.00;65.60;;;;;;10470987;28;20368;-65
2022/03/24 01:30:01;;;;;;;21.80;11.23;;;13.00;65.60;;;;;;10475256;28;20025;-64
2022/03/24 01:35:03;;;;;;;22.02;11.48;;;12.90;65.70;;;;;;10491874;28;20091;-65
2022/03/24 01:40:07;;;;;;;20.52;11.55;;;12.90;65.70;;;;;;10488209;28;20020;-64
2022/03/24 01:45:09;;;;;;;21.88;12.05;;;12.90;65.70;;;;;;10491568;28;20135;-64
2022/03/24 01:50:11;;;;;;;24.20;12.10;;;12.80;65.70;;;;;;10481210;28;20057;-65
2022/03/24 01:55:13;;;;;;;21.48;12.00;;;12.80;65.80;;;;;;10489795;28;20025;-64
2022/03/24 02:00:14;;;;;;;26.90;12.45;;;12.80;65.90;;;;;;10482913;28;20167;-63
2022/03/24 02:05:15;;;;;;;23.75;12.40;;;12.70;65.90;;;;;;10489900;28;20490;-62
2022/03/24 02:10:16;;;;;;;25.73;12.40;;;12.70;65.90;;;;;;10488153;28;20041;-65
2022/03/24 02:15:18;;;;;;;21.20;10.82;;;12.60;65.90;;;;;;10490267;28;20051;-66
2022/03/24 02:20:20;;;;;;;19.58;11.25;;;12.60;66.00;;;;;;10480395;28;20044;-65
2022/03/24 02:25:28;;;;;;;20.55;11.05;;;12.60;66.00;;;;;;10478943;28;20024;-65
2022/03/24 02:30:29;;;;;;;22.88;12.00;;;12.50;66.70;;;;;;10473960;28;20491;-65
2022/03/24 02:35:30;;;;;;;23.73;12.18;;;12.50;66.10;;;;;;10485418;28;20032;-65
2022/03/24 02:40:31;;;;;;;20.77;11.70;;;12.50;66.20;;;;;;10489462;28;20036;-66
2022/03/24 02:45:31;;;;;;;20.67;11.98;;;12.50;66.20;;;;;;10490132;28;20474;-65
2022/03/24 02:50:34;;;;;;;25.20;11.75;;;12.40;66.20;;;;;;10484231;28;20559;-63
2022/03/24 02:55:35;;;;;;;23.45;12.40;;;12.40;66.30;;;;;;10471039;28;20028;-65
2022/03/24 03:00:38;;;;;;;21.13;12.02;;;12.40;66.30;;;;;;10479824;28;20045;-65
2022/03/24 03:05:39;;;;;;;21.50;12.20;;;12.30;66.90;;;;;;10484671;28;20037;-65
2022/03/24 03:10:40;;;;;;;22.63;12.05;;;12.30;66.40;;;;;;10478343;28;20033;-65
2022/03/24 03:15:40;;;;;;;21.80;11.48;;;12.30;66.40;;;;;;10487994;28;20029;-65
2022/03/24 03:20:42;;;;;;;23.63;12.40;;;12.20;66.40;;;;;;10476674;28;20031;-64
2022/03/24 03:25:43;;;;;;;18.92;11.27;;;12.20;66.40;;;;;;10470409;28;20415;-65
2022/03/24 03:30:43;;;;;;;24.20;11.43;;;12.20;66.50;;;;;;10467319;28;20043;-65
2022/03/24 03:35:44;;;;;;;24.40;12.40;;;12.10;66.50;;;;;;10484977;28;20032;-65
2022/03/24 03:40:45;;;;;;;22.73;11.48;;;12.10;66.50;;;;;;10478151;28;20131;-65
2022/03/24 03:45:46;;;;;;;21.48;11.77;;;12.10;66.60;;;;;;10477769;28;20464;-64
2022/03/24 03:50:48;;;;;;;22.80;11.73;;;12.00;66.60;;;;;;10477545;28;20043;-65
2022/03/24 03:55:49;;;;;;;22.98;12.70;;;12.10;66.70;;;;;;10476615;28;20040;-64
2022/03/24 04:00:53;;;;;;;25.13;12.75;;;12.00;66.70;;;;;;10477760;28;20071;-65
2022/03/24 04:05:55;;;;;;;24.52;12.73;;;11.90;66.70;;;;;;10481702;28;20125;-65
2022/03/24 04:10:56;;;;;;;24.25;12.23;;;11.90;66.70;;;;;;10480591;28;20040;-64
2022/03/24 04:15:57;;;;;;;23.55;12.75;;;11.90;66.80;;;;;;10486053;28;20397;-65
2022/03/24 04:20:58;;;;;;;26.40;13.38;;;11.90;66.90;;;;;;10472574;28;20078;-66
2022/03/24 04:25:59;;;;;;;23.73;13.75;;;12.80;67.30;;;;;;10468657;28;20036;-64
2022/03/24 04:31:00;;;;;;;23.70;13.02;;;11.80;66.90;;;;;;10481268;28;20036;-65
2022/03/24 04:36:01;;;;;;;28.20;14.30;;;11.70;66.80;;;;;;10480193;28;20486;-65
2022/03/24 04:41:02;;;;;;;22.20;12.27;;;11.70;66.90;;;;;;10485850;28;20391;-64
2022/03/24 04:46:04;;;;;;;26.77;13.57;;;11.70;66.90;;;;;;10485554;28;20114;-64
2022/03/24 04:51:05;;;;;;;25.05;13.50;;;11.70;67.00;;;;;;10480560;28;20040;-65
2022/03/24 04:56:06;;;;;;;27.92;13.68;;;11.70;67.10;;;;;;10473778;28;20035;-64
2022/03/24 05:01:07;;;;;;;26.95;13.40;;;11.60;67.00;;;;;;10464039;28;20053;-64
2022/03/24 05:06:08;;;;;;;27.02;13.95;;;11.60;67.00;;;;;;10475528;28;20056;-65
2022/03/24 05:11:09;;;;;;;26.58;13.93;;;11.60;67.10;;;;;;10484025;28;20052;-65
2022/03/24 05:16:10;;;;;;;26.48;13.57;;;11.50;67.10;;;;;;10491390;28;20029;-64
2022/03/24 05:21:11;;;;;;;29.55;14.90;;;11.50;67.10;;;;;;10475895;28;20044;-64
2022/03/24 05:26:12;;;;;;;28.98;14.43;;;11.50;67.10;;;;;;10484610;28;20394;-65
2022/03/24 05:31:13;;;;;;;28.35;13.90;;;11.50;67.10;;;;;;10465565;28;20044;-65
2022/03/24 05:36:15;;;;;;;28.85;13.77;;;11.40;67.10;;;;;;10484016;28;20548;-65
2022/03/24 05:41:16;;;;;;;23.42;12.77;;;11.40;67.10;;;;;;10491731;28;20291;-65
2022/03/24 05:46:16;;;;;;;27.60;13.88;;;11.30;67.10;;;;;;10492617;28;20032;-67
2022/03/24 05:51:17;;;;;;;28.05;13.52;;;11.40;67.10;;;;;;10477053;28;20152;-69
2022/03/24 05:56:19;;;;;;;30.00;14.50;;;11.30;67.10;;;;;;10490259;28;20029;-65
2022/03/24 06:01:20;;;;;;;30.38;15.15;;;11.30;67.10;;;;;;10481978;28;20449;-65
2022/03/24 06:06:22;;;;;;;27.17;13.77;;;11.30;67.20;;;;;;10481610;28;20020;-66
2022/03/24 06:11:26;;;;;;;28.13;14.93;;;11.30;67.20;;;;;;10483991;28;20274;-69
2022/03/24 06:16:27;;;;;;;27.67;13.73;;;11.30;67.20;;;;;;10489991;28;20028;-68
2022/03/24 06:21:28;;;;;;;26.67;14.02;;;11.30;67.20;;;;;;10483272;28;20437;-64
2022/03/24 06:26:29;;;;;;;33.10;14.93;;;11.20;67.20;;;;;;10481112;28;20032;-73
2022/03/24 06:31:30;;;;;;;30.40;15.23;;;11.20;67.20;;;;;;10470991;28;20032;-68
2022/03/24 06:36:31;;;;;;;29.98;16.17;;;11.20;67.20;;;;;;10485732;28;20031;-65
2022/03/24 06:41:32;;;;;;;27.42;13.98;;;11.20;67.20;;;;;;10464818;28;20040;-65
2022/03/24 06:46:33;;;;;;;29.77;15.85;;;11.20;67.20;;;;;;10481305;28;20036;-62
2022/03/24 06:51:35;;;;;;;30.77;15.65;;;11.20;67.30;;;;;;10474381;28;20170;-63
2022/03/24 06:56:35;;;;;;;32.20;15.65;;;11.20;67.30;;;;;;10476008;28;20325;-63
2022/03/24 07:01:36;;;;;;;27.35;14.57;;;11.20;67.30;;;;;;10481380;28;20056;-65
2022/03/24 07:06:38;;;;;;;34.28;15.77;;;11.20;67.30;;;;;;10476997;28;20486;-63
2022/03/24 07:11:38;;;;;;;34.47;16.65;;;11.30;67.40;;;;;;10485040;28;20052;-60
2022/03/24 07:16:39;;;;;;;37.67;18.38;;;11.30;67.30;;;;;;10466259;28;20021;-66
2022/03/24 07:21:40;;;;;;;31.25;17.90;;;11.30;67.30;;;;;;10472340;28;20490;-63
2022/03/24 07:26:41;;;;;;;36.53;18.25;;;11.40;67.30;;;;;;10483623;28;20027;-66
2022/03/24 07:31:41;;;;;;;39.80;18.73;;;11.50;67.30;;;;;;10472849;28;20037;-61
2022/03/24 07:36:43;;;;;;;32.03;17.58;;;11.50;67.20;;;;;;10483628;28;20498;-61
2022/03/24 07:41:44;;;;;;;35.85;18.40;;;11.60;67.20;;;;;;10487563;28;20036;-61
2022/03/24 07:46:45;;;;;;;35.53;18.98;;;11.70;67.10;;;;;;10487812;28;20027;-61
2022/03/24 07:51:45;;;;;;;37.53;19.25;;;11.80;67.00;;;;;;10482184;28;20043;-61
2022/03/24 07:56:46;;;;;;;38.00;18.67;;;11.90;67.00;;;;;;10487778;28;20445;-60
2022/03/24 08:01:47;;;;;;;36.40;18.77;;;12.00;66.80;;;;;;10475667;28;20515;-60
2022/03/24 08:06:48;;;;;;;34.95;18.17;;;12.10;66.80;;;;;;10469331;28;20361;-64
2022/03/24 08:11:48;;;;;;;35.75;17.95;;;12.20;66.90;;;;;;10485463;28;20360;-62
2022/03/24 08:16:49;;;;;;;33.80;15.90;;;12.30;66.80;;;;;;10476351;28;20044;-61
2022/03/24 08:21:50;;;;;;;32.53;15.98;;;12.30;67.00;;;;;;10471407;28;20032;-62
2022/03/24 08:26:50;;;;;;;35.22;17.55;;;12.40;66.90;;;;;;10480781;28;20132;-63
2022/03/24 08:31:51;;;;;;;33.78;16.73;;;12.40;66.90;;;;;;10454246;28;20457;-63
2022/03/24 08:36:52;;;;;;;34.22;17.15;;;12.40;67.00;;;;;;10475262;28;20111;-62
2022/03/24 08:41:54;;;;;;;33.83;15.93;;;12.50;67.00;;;;;;10473760;28;20052;-61
2022/03/24 08:46:54;;;;;;;32.13;15.98;;;12.50;67.60;;;;;;10496176;28;20634;-66
2022/03/24 08:51:55;;;;;;;29.75;15.05;;;12.50;67.00;;;;;;10470212;28;20040;-61
2022/03/24 08:56:56;;;;;;;41.10;19.85;;;12.50;67.50;;;;;;10485945;28;20025;-65
2022/03/24 09:01:57;;;;;;;52.92;23.08;;;12.50;67.80;;;;;;10480714;28;20511;-69
2022/03/24 09:06:58;;;;;;;56.85;24.70;;;12.40;68.60;;;;;;10484377;28;20244;-66
2022/03/24 09:11:59;;;;;;;48.35;23.58;;;12.40;69.10;;;;;;10482217;28;20037;-66
2022/03/24 09:16:59;;;;;;;50.95;23.77;;;12.40;69.60;;;;;;10495545;28;20032;-66
2022/03/24 09:22:02;;;;;;;48.28;23.15;;;12.50;70.00;;;;;;10484968;28;20060;-65
2022/03/24 09:27:05;;;;;;;53.25;23.08;;;12.60;70.00;;;;;;10493002;28;20063;-63
2022/03/24 09:32:12;;;;;;;50.25;24.33;;;12.70;69.90;;;;;;10482852;28;20055;-67
2022/03/24 09:37:17;;;;;;;49.67;23.23;;;12.70;69.80;;;;;;10475236;28;20116;-70
2022/03/24 09:42:18;;;;;;;50.33;22.70;;;12.80;69.70;;;;;;10482638;28;20130;-65
2022/03/24 09:47:19;;;;;;;50.95;22.73;;;13.00;69.80;;;;;;10498638;28;20423;-66
2022/03/24 09:52:21;;;;;;;47.22;21.92;;;13.20;69.60;;;;;;10483048;28;20048;-70
2022/03/24 09:57:24;;;;;;;42.83;20.20;;;13.40;69.10;;;;;;10492138;28;20028;-62
2022/03/24 10:02:25;;;;;;;46.03;21.30;;;13.40;68.90;;;;;;10483307;28;20057;-69
2022/03/24 10:07:27;;;;;;;40.38;20.38;;;13.40;68.90;;;;;;10486962;28;20390;-66
2022/03/24 10:12:33;;;;;;;39.90;18.70;;;13.50;69.10;;;;;;10491413;28;20479;-75
2022/03/24 10:17:35;;;;;;;36.28;17.50;;;13.50;69.10;;;;;;10487217;28;20009;-66
2022/03/24 10:22:36;;;;;;;34.75;17.35;;;13.60;69.00;;;;;;10479120;28;20467;-68
2022/03/24 10:27:37;;;;;;;38.10;18.10;;;13.60;68.90;;;;;;10476644;28;20029;-62
2022/03/24 10:32:38;;;;;;;37.97;17.40;;;13.70;68.80;;;;;;10485982;28;20055;-71
2022/03/24 10:37:46;;;;;;;37.25;17.38;;;13.80;68.80;;;;;;10478132;28;20025;-72
2022/03/24 10:42:47;;;;;;;30.98;16.38;;;13.80;68.70;;;;;;10486394;28;20111;-68
2022/03/24 10:48:06;;;;;;;37.15;16.60;;;13.90;68.70;;;;;;10489829;28;20162;-65
2022/03/24 10:53:11;;;;;;;;;;;14.00;68.90;;;;;;10476734;28;20188;-65
2022/03/24 10:58:22;;;;;;;33.85;15.48;;;14.10;69.20;;;;;;10489820;28;19915;-69
2022/03/24 11:03:23;;;;;;;31.63;14.45;;;14.20;69.00;;;;;;10478781;28;20589;-67
2022/03/24 11:08:25;;;;;;;30.92;14.63;;;14.20;68.20;;;;;;10464667;28;20021;-70
2022/03/24 11:13:38;;;;;;;26.33;13.13;;;14.30;68.10;;;;;;10489297;28;20051;-70
2022/03/24 11:18:39;;;;;;;27.98;13.93;;;14.40;68.20;;;;;;10479115;28;20051;-63
2022/03/24 11:23:40;;;;;;;27.75;13.95;;;14.40;68.10;;;;;;10475110;28;20493;-64
2022/03/24 11:28:43;;;;;;;29.55;13.52;;;14.50;68.00;;;;;;10484757;28;20036;-65
2022/03/24 11:33:49;;;;;;;28.20;13.25;;;14.60;67.90;;;;;;10474698;28;20041;-62
2022/03/24 11:38:59;;;;;;;24.92;13.00;;;14.70;67.70;;;;;;10480512;28;20032;-66
2022/03/24 11:44:25;;;;;;;27.73;11.98;;;14.70;67.50;;;;;;10473655;28;20029;-66
2022/03/24 11:49:27;;;;;;;27.23;11.75;;;14.80;67.30;;;;;;10455166;28;20471;-64
2022/03/24 11:54:40;;;;;;;23.70;12.02;;;14.90;67.20;;;;;;10482034;28;20500;-64
2022/03/24 11:59:41;;;;;;;22.10;11.35;;;15.00;67.00;;;;;;10478471;28;20052;-63
2022/03/24 12:04:57;;;;;;;29.45;11.18;;;15.00;67.00;;;;;;10487001;28;20070;-66
2022/03/24 12:10:04;;;;;;;24.50;12.02;;;15.10;67.00;;;;;;10470092;28;20123;-64
2022/03/24 12:15:16;;;;;;;25.00;11.85;;;15.20;66.90;;;;;;10467364;28;20051;-63
2022/03/24 12:20:22;;;;;;;21.80;10.85;;;15.30;66.80;;;;;;10474423;28;20025;-63
2022/03/24 12:25:25;;;;;;;21.33;10.63;;;15.30;66.70;;;;;;10470861;28;20036;-63
2022/03/24 12:30:27;;;;;;;24.27;12.00;;;15.40;66.60;;;;;;10467831;28;20025;-65
2022/03/24 12:35:43;;;;;;;22.90;10.65;;;15.40;66.60;;;;;;10467719;28;20049;-64
2022/03/24 12:41:02;;;;;;;25.02;10.52;;;15.50;66.50;;;;;;10472974;28;20024;-64
2022/03/24 12:46:22;;;;;;;23.85;10.75;;;15.50;66.60;;;;;;10462207;28;20119;-65
2022/03/24 12:51:25;;;;;;;21.73;10.57;;;15.60;66.60;;;;;;10479568;28;20042;-66
2022/03/24 12:56:31;;;;;;;20.90;10.32;;;15.70;66.60;;;;;;10484146;28;20036;-64
2022/03/24 13:01:36;;;;;;;27.25;11.45;;;15.80;66.50;;;;;;10469516;28;20049;-63
2022/03/24 13:06:38;;;;;;;21.92;10.90;;;15.80;66.50;;;;;;10448973;28;20040;-65
2022/03/24 13:12:02;;;;;;;21.23;11.07;;;15.80;66.60;;;;;;10449260;28;20025;-64
2022/03/24 13:17:12;;;;;;;22.80;9.95;;;15.90;66.80;;;;;;10451527;28;20423;-62
2022/03/24 13:22:19;;;;;;;20.98;10.15;;;15.80;67.00;;;;;;10460888;28;20024;-66
2022/03/24 13:27:20;;;;;;;21.20;10.38;;;15.80;67.20;;;;;;10474362;28;20371;-65
2022/03/24 13:32:26;;;;;;;22.67;10.60;;;15.80;67.50;;;;;;10447923;28;20029;-66
2022/03/24 13:37:58;;;;;;;21.30;9.80;;;15.80;67.70;;;;;;10460278;28;20036;-63
2022/03/24 13:43:00;;;;;;;19.00;9.95;;;15.80;67.70;;;;;;10457500;28;20072;-64
2022/03/24 13:48:12;;;;;;;22.30;10.00;;;15.70;68.00;;;;;;10491879;28;20024;-70
2022/03/24 13:53:24;;;;;;;19.23;9.15;;;15.80;68.30;;;;;;10486468;28;20040;-65
2022/03/24 13:58:25;;;;;;;17.45;9.60;;;15.80;68.50;;;;;;10483239;28;20029;-64
2022/03/24 14:03:29;;;;;;;16.58;8.63;;;15.90;68.50;;;;;;10489152;28;20056;-64
2022/03/24 14:08:31;;;;;;;16.85;8.65;;;16.00;68.40;;;;;;10480799;28;20112;-64
2022/03/24 14:13:44;;;;;;;15.52;8.20;;;16.10;68.30;;;;;;10489615;28;20045;-64
2022/03/24 14:19:06;;;;;;;19.98;9.00;;;16.20;68.20;;;;;;10473375;28;20029;-63
2022/03/24 14:24:08;;;;;;;15.00;8.43;;;16.40;68.10;;;;;;10472947;28;20480;-65
2022/03/24 14:29:21;;;;;;;16.45;8.65;;;16.50;67.70;;;;;;10470577;28;20797;-66
2022/03/24 14:34:21;;;;;;;18.20;8.93;;;16.60;68.00;;;;;;10472792;28;20049;-70
2022/03/24 14:39:22;;;;;;;14.68;8.23;;;16.50;68.10;;;;;;10450134;28;20032;-71
2022/03/24 14:44:24;;;;;;;20.83;9.32;;;16.60;68.30;;;;;;10478203;28;20032;-69
2022/03/24 14:49:25;;;;;;;20.75;9.05;;;16.70;68.00;;;;;;10487226;28;20048;-66
2022/03/24 14:54:27;;;;;;;16.90;8.32;;;16.80;68.20;;;;;;10473956;28;20068;-68
2022/03/24 14:59:27;;;;;;;18.30;9.02;;;16.80;68.00;;;;;;10479373;28;20037;-65
2022/03/24 15:04:29;;;;;;;15.70;8.25;;;17.00;68.00;;;;;;10484919;28;20036;-65
2022/03/24 15:09:29;;;;;;;14.00;7.43;;;17.10;68.00;;;;;;10470878;28;20368;-64
2022/03/24 15:19:49;;;;;;;14.93;7.97;;;17.30;67.90;;;;;;10474277;28;20063;-71
2022/03/24 15:24:51;;;;;;;14.23;8.23;;;17.30;67.60;;;;;;10465156;28;20128;-69
2022/03/24 15:29:52;;;;;;;15.45;8.55;;;17.20;67.70;;;;;;10474505;28;20072;-71
2022/03/24 15:34:52;;;;;;;15.95;8.55;;;17.20;67.80;;;;;;10486574;28;20043;-72
2022/03/24 15:39:54;;;;;;;17.27;8.65;;;17.20;68.10;;;;;;10486245;28;20035;-65
2022/03/24 15:44:55;;;;;;;18.35;8.65;;;17.10;68.10;;;;;;10485766;28;20541;-63
2022/03/24 15:49:56;;;;;;;17.40;9.10;;;17.00;68.40;;;;;;10466230;28;20048;-63
2022/03/24 15:54:56;;;;;;;17.27;9.68;;;17.10;69.20;;;;;;10479142;28;20086;-75
2022/03/24 15:59:57;;;;;;;18.27;10.00;;;17.10;68.60;;;;;;10463190;28;20055;-65
2022/03/24 16:04:58;;;;;;;17.08;8.98;;;17.00;68.60;;;;;;10457682;28;20041;-67
2022/03/24 16:10:00;;;;;;;16.17;8.40;;;17.00;68.80;;;;;;10450158;28;20025;-72
2022/03/24 16:15:01;;;;;;;16.27;8.88;;;17.00;69.00;;;;;;10455488;28;20438;-67
2022/03/24 16:20:02;;;;;;;17.00;9.45;;;17.00;69.30;;;;;;10457893;28;20025;-71
2022/03/24 16:25:04;;;;;;;21.73;11.23;;;17.00;69.50;;;;;;10448124;28;20060;-71
2022/03/24 16:30:06;;;;;;;22.05;12.02;;;16.90;69.40;;;;;;10459778;28;20025;-73
2022/03/24 16:35:09;;;;;;;25.80;11.65;;;16.90;69.50;;;;;;10484716;28;20048;-72
2022/03/24 16:40:11;;;;;;;24.33;12.20;;;16.80;69.50;;;;;;10484973;28;20029;-72
2022/03/24 16:45:13;;;;;;;26.98;11.98;;;16.80;69.60;;;;;;10451577;28;20101;-69
2022/03/24 16:50:17;;;;;;;26.75;12.45;;;16.80;69.60;;;;;;10450038;28;20030;-67
2022/03/24 16:55:20;;;;;;;27.08;13.45;;;16.80;69.70;;;;;;10479662;28;20060;-71
2022/03/24 17:00:21;;;;;;;20.42;10.63;;;16.80;69.80;;;;;;10473371;28;20499;-71
2022/03/24 17:05:23;;;;;;;22.30;10.98;;;16.70;69.90;;;;;;10489995;28;20624;-69
2022/03/24 17:10:24;;;;;;;26.30;14.07;;;16.50;69.90;;;;;;10474764;28;20650;-69
2022/03/24 17:15:25;;;;;;;30.27;14.73;;;16.50;70.00;;;;;;10471520;28;20036;-65
2022/03/24 17:20:26;;;;;;;31.92;13.73;;;16.40;70.00;;;;;;10481409;28;20024;-61
2022/03/24 17:25:26;;;;;;;31.88;14.38;;;16.40;70.10;;;;;;10467286;28;20555;-70
2022/03/24 17:30:27;;;;;;;28.10;12.68;;;16.40;70.50;;;;;;10478430;28;20029;-67
2022/03/24 17:35:28;;;;;;;28.33;13.40;;;16.30;70.70;;;;;;10474933;28;20459;-59
2022/03/24 17:40:30;;;;;;;29.35;14.27;;;16.30;70.90;;;;;;10469909;28;20626;-67
2022/03/24 17:45:30;;;;;;;29.60;13.27;;;16.20;70.90;;;;;;10464462;28;20033;-72
2022/03/24 17:50:31;;;;;;;29.98;14.77;;;16.10;71.00;;;;;;10456166;28;20538;-74
2022/03/24 17:55:32;;;;;;;30.20;13.98;;;16.10;71.10;;;;;;10454520;28;20044;-64
2022/03/24 18:00:33;;;;;;;27.27;13.30;;;16.00;71.10;;;;;;10460028;28;20044;-71
2022/03/24 18:05:34;;;;;;;28.45;12.77;;;16.00;71.20;;;;;;10455762;28;20082;-73
2022/03/24 18:10:34;;;;;;;24.60;12.30;;;15.90;71.20;;;;;;10483000;28;20032;-67
2022/03/24 18:15:35;;;;;;;28.30;12.70;;;15.90;71.30;;;;;;10488210;28;20060;-65
2022/03/24 18:20:36;;;;;;;27.05;12.07;;;15.80;71.30;;;;;;10477144;28;20387;-70
2022/03/24 18:25:36;;;;;;;24.25;11.35;;;15.80;71.40;;;;;;10466975;28;20024;-67
2022/03/24 18:30:39;;;;;;;26.63;12.30;;;15.70;71.40;;;;;;10471607;28;20032;-66
2022/03/24 18:35:43;;;;;;;25.50;11.35;;;15.60;71.40;;;;;;10464443;28;20039;-65
2022/03/24 18:40:43;;;;;;;22.02;11.20;;;15.60;71.40;;;;;;10455935;28;20078;-65
2022/03/24 18:45:44;;;;;;;23.42;11.50;;;15.50;71.40;;;;;;10452344;28;20086;-62
2022/03/24 18:50:45;;;;;;;27.05;11.65;;;15.50;71.40;;;;;;10458605;28;20039;-65
2022/03/24 18:55:46;;;;;;;21.10;10.43;;;15.40;71.40;;;;;;10465577;28;20035;-63
2022/03/24 19:00:47;;;;;;;26.63;11.60;;;15.40;71.50;;;;;;10441020;28;20072;-64
2022/03/24 19:05:49;;;;;;;21.98;10.35;;;15.40;71.40;;;;;;10476204;28;20127;-65
2022/03/24 19:10:50;;;;;;;22.48;10.85;;;15.30;71.40;;;;;;10460491;28;20028;-64
2022/03/24 19:15:51;;;;;;;23.63;11.63;;;15.20;71.30;;;;;;10475636;28;20032;-63
2022/03/24 19:20:53;;;;;;;22.60;12.05;;;15.20;71.30;;;;;;10474359;28;20033;-65
2022/03/24 19:25:54;;;;;;;21.88;10.95;;;15.20;71.20;;;;;;10481382;28;20051;-65
2022/03/24 19:30:54;;;;;;;21.25;10.60;;;15.10;71.10;;;;;;10478161;28;20504;-63
2022/03/24 19:35:55;;;;;;;23.08;11.70;;;15.00;71.00;;;;;;10472320;28;20040;-66
2022/03/24 19:40:56;;;;;;;28.90;12.75;;;15.00;70.90;;;;;;10468885;28;20116;-71
2022/03/24 19:45:57;;;;;;;22.75;11.77;;;14.90;70.70;;;;;;10455111;28;20051;-65
2022/03/24 19:50:57;;;;;;;24.85;11.48;;;14.90;70.60;;;;;;10458756;28;20029;-62
2022/03/24 19:55:58;;;;;;;23.42;11.25;;;14.80;70.50;;;;;;10448733;28;20168;-62
2022/03/24 20:00:59;;;;;;;22.73;11.05;;;14.80;70.40;;;;;;10479612;28;20045;-62
2022/03/24 20:06:00;;;;;;;25.25;12.23;;;14.70;70.20;;;;;;10475455;28;20156;-62
2022/03/24 20:11:05;;;;;;;21.95;10.57;;;14.70;70.20;;;;;;10450596;28;20072;-62
2022/03/24 20:16:06;;;;;;;26.85;12.13;;;14.60;70.00;;;;;;10460016;28;20068;-64
2022/03/24 20:21:08;;;;;;;24.77;12.10;;;14.60;69.90;;;;;;10456384;28;20028;-62
2022/03/24 20:26:09;;;;;;;23.60;12.10;;;14.60;69.70;;;;;;10475688;28;20028;-63
2022/03/24 20:31:10;;;;;;;24.33;12.85;;;14.50;69.60;;;;;;10459284;28;20103;-61
2022/03/24 20:36:11;;;;;;;28.20;12.95;;;14.50;69.50;;;;;;10479069;28;20390;-61
2022/03/24 20:41:12;;;;;;;29.17;13.07;;;14.40;69.30;;;;;;10467128;28;20124;-63
2022/03/24 20:46:13;;;;;;;26.25;13.68;;;14.40;69.20;;;;;;10460258;28;20021;-61
2022/03/24 20:51:15;;;;;;;29.33;14.65;;;14.30;69.00;;;;;;10476871;28;20040;-64
2022/03/24 20:56:16;;;;;;;26.13;14.30;;;14.30;69.00;;;;;;10464579;28;20029;-64
2022/03/24 21:01:17;;;;;;;31.55;15.30;;;14.20;68.90;;;;;;10476195;28;20053;-68
2022/03/24 21:06:18;;;;;;;32.22;15.00;;;14.20;68.90;;;;;;10477099;28;20903;-63
2022/03/24 21:11:19;;;;;;;36.53;16.58;;;14.10;68.90;;;;;;10474910;28;20044;-67
2022/03/24 21:16:20;;;;;;;33.55;15.93;;;14.10;68.90;;;;;;10477585;28;20028;-64
2022/03/24 21:21:21;;;;;;;35.15;16.50;;;14.10;68.90;;;;;;10476049;28;20390;-62
2022/03/24 21:26:22;;;;;;;32.97;17.95;;;14.00;68.90;;;;;;10478064;28;20024;-63
2022/03/24 21:31:23;;;;;;;35.47;17.38;;;14.00;68.90;;;;;;10468626;28;20045;-63
2022/03/24 21:36:24;;;;;;;35.70;19.13;;;13.90;69.00;;;;;;10471485;28;20035;-63
2022/03/24 21:41:25;;;;;;;36.42;18.27;;;13.90;69.60;;;;;;10465212;28;20039;-64
2022/03/24 21:46:27;;;;;;;40.97;18.88;;;13.90;69.00;;;;;;10477632;28;20028;-61
2022/03/24 21:51:29;;;;;;;39.88;20.08;;;13.80;69.00;;;;;;10475471;28;20047;-64
2022/03/24 21:56:29;;;;;;;38.92;19.33;;;13.80;69.00;;;;;;10481459;28;20467;-64
2022/03/24 22:01:30;;;;;;;45.13;21.20;;;13.70;69.00;;;;;;10462426;28;20057;-65
2022/03/24 22:06:31;;;;;;;45.70;22.15;;;13.70;69.10;;;;;;10453722;28;20075;-65
2022/03/24 22:11:33;;;;;;;44.28;20.75;;;13.70;69.10;;;;;;10464872;28;20452;-64
2022/03/24 22:16:34;;;;;;;46.42;21.55;;;13.60;69.20;;;;;;10458447;28;20063;-66
2022/03/24 22:21:35;;;;;;;47.25;22.88;;;13.60;69.20;;;;;;10442163;28;20067;-65
2022/03/24 22:26:36;;;;;;;44.95;22.40;;;13.50;69.20;;;;;;10452486;28;20108;-65
2022/03/24 22:31:36;;;;;;;47.47;23.27;;;13.50;69.30;;;;;;10456816;28;20494;-65
2022/03/24 22:36:39;;;;;;;51.08;23.45;;;13.40;69.20;;;;;;10466646;28;20647;-65
2022/03/24 22:41:40;;;;;;;46.35;22.27;;;13.40;69.30;;;;;;10477864;28;20509;-67
2022/03/24 22:46:41;;;;;;;50.45;23.38;;;13.40;69.30;;;;;;10479534;28;20028;-66
2022/03/24 22:51:42;;;;;;;45.67;23.75;;;13.30;69.30;;;;;;10480906;28;20037;-66
2022/03/24 22:56:43;;;;;;;53.80;25.15;;;13.30;69.50;;;;;;10475334;28;20107;-65
2022/03/24 23:01:44;;;;;;;53.35;25.30;;;13.20;69.50;;;;;;10482000;28;20048;-63
2022/03/24 23:06:45;;;;;;;52.72;25.92;;;13.20;69.50;;;;;;10487986;28;20074;-66
2022/03/24 23:11:46;;;;;;;48.40;25.48;;;13.20;69.50;;;;;;10489011;28;20051;-65
2022/03/24 23:16:47;;;;;;;54.20;25.88;;;13.10;69.60;;;;;;10488810;28;20043;-66
2022/03/24 23:21:47;;;;;;;50.70;24.52;;;13.10;69.60;;;;;;10485592;28;20056;-66
2022/03/24 23:26:48;;;;;;;51.92;25.50;;;13.10;69.70;;;;;;10486097;28;20024;-63
2022/03/24 23:31:51;;;;;;;57.20;26.55;;;13.00;69.70;;;;;;10487081;28;20044;-66
2022/03/24 23:36:51;;;;;;;56.47;26.42;;;13.00;69.70;;;;;;10488070;28;20039;-64
2022/03/24 23:41:53;;;;;;;53.65;26.10;;;13.00;69.80;;;;;;10486660;28;20016;-66
2022/03/24 23:46:53;;;;;;;53.83;25.45;;;12.90;69.80;;;;;;10458312;28;20028;-65
2022/03/24 23:51:54;;;;;;;56.88;27.23;;;12.90;69.80;;;;;;10482536;28;20044;-66
2022/03/24 23:56:55;;;;;;;54.55;26.05;;;12.90;70.00;;;;;;10487313;28;20040;-65
